Pagrindinis puslapis
METAR-TAF:

METAR-TAF

Oro uostai :

Liuleo, Švedija

platuma: 65-33N, ilguma: 022-08E, Aukštis: 17 m

Dabartinis oras

Ataskaita buvo paskelbta 24 minutes, ne 13:20 UTC
Vėjas 12 kt iš Šiaurės
Temperatūra 0°C
Drėgmė 31%
Slėgis 1016 hPa
Matomumas 10 km arba daugiau
nėra debesų žemiau 1500 m ir nėra kamuolinių lietaus debesų

METAR: ESPA 201320Z 35012KT CAVOK 00/M15 Q1016

Laikas: 15:44 (13:44 UTC)

Prognozė

Ataskaita buvo paskelbta 2 valandos ir 14 minutes, ne 11:30 UTC
Prognozė galioja nuo 20 metu 12 UTC su 20 metu 19 UTC
Vėjas 14 kt iš Šiaurės su gūsio iki 24 kt
Matomumas 10 km arba daugiau
nėra debesų žemiau 1500 m ir nėra kamuolinių lietaus debesų

TAF: ESPA 201130Z 2012/2019 36014G24KT CAVOK

Orai ataskaitas ir orų prognozės (METAR, TAF).

turimą stotys yra geltonos ir raudonos taškus žemėlapyje.

Perkelti pele per norėdami pamatyti stoties vardą.

Tada spustelėkite, norėdami matyti oro stebėjimo ir prognozės.

Norėdami pakeisti žemėlapį: spustelėkite ant žalios mygtukų su juodo kryžiaus žemyn,; žalią mygtuką su brūkšneliu, jei norite nutolinti; arba žalių rodyklių gretimoms žemėlapius.


METAR-TAF: